Time;durP1;ratioP1;P1;durP2;ratioP2;P2;SDS_P1;SDS_P2;PMS_P1;PMS_P2;Temp;Humidity;BMP_temperature;BMP_pressure;BME280_temperature;BME280_humidity;BME280_pressure;Samples;Min_cycle;Max_cycle;Signal;HPM_P1;HPM_P2
2022/08/27 00:02:02;;;;;;;16.27;4.20;;;;;;;16.14;76.71;101735.81;5052220;28;20039;-75
2022/08/27 00:04:27;;;;;;;20.67;5.10;;;;;;;16.12;76.46;101735.19;5051985;28;20033;-75
2022/08/27 00:06:53;;;;;;;15.10;4.57;;;;;;;16.12;76.92;101737.91;5050505;28;20439;-75
2022/08/27 00:09:18;;;;;;;16.13;4.70;;;;;;;16.09;76.81;101738.25;5051838;28;20059;-75
2022/08/27 00:11:45;;;;;;;17.83;4.47;;;;;;;16.07;76.81;101732.22;5052109;28;20024;-75
2022/08/27 00:14:11;;;;;;;13.65;4.03;;;;;;;16.05;76.93;101737.00;5051948;28;20714;-75
2022/08/27 00:16:36;;;;;;;13.43;4.57;;;;;;;16.04;77.06;101735.31;5051885;28;20025;-75
2022/08/27 00:19:02;;;;;;;22.10;4.40;;;;;;;16.01;77.33;101725.69;5051894;28;20097;-75
2022/08/27 00:21:27;;;;;;;14.23;4.22;;;;;;;15.99;77.36;101728.59;5051903;28;20040;-75
2022/08/27 00:23:53;;;;;;;15.43;4.00;;;;;;;15.99;77.66;101727.75;5051777;28;20037;-75
2022/08/27 00:26:18;;;;;;;14.27;4.13;;;;;;;15.99;77.40;101722.34;5051717;28;20036;-75
2022/08/27 00:28:44;;;;;;;18.00;4.70;;;;;;;16.00;77.61;101722.13;5051678;28;20033;-75
2022/08/27 00:31:09;;;;;;;19.40;3.83;;;;;;;16.03;77.55;101720.88;5051704;28;20157;-75
2022/08/27 00:33:35;;;;;;;18.35;3.60;;;;;;;16.05;77.57;101720.72;5033384;28;20396;-75
2022/08/27 00:36:03;;;;;;;17.15;4.28;;;;;;;16.05;77.38;101726.13;5051294;28;20350;-75
2022/08/27 00:38:28;;;;;;;18.05;4.18;;;;;;;16.05;77.37;101721.53;5051486;28;20029;-76
2022/08/27 00:40:54;;;;;;;14.85;4.82;;;;;;;16.06;77.48;101722.38;5051386;28;20083;-74
2022/08/27 00:43:22;;;;;;;21.52;4.68;;;;;;;16.04;77.56;101719.03;5051184;28;20049;-74
2022/08/27 00:45:48;;;;;;;28.30;5.90;;;;;;;16.02;77.69;101714.63;5051599;28;20025;-75
2022/08/27 00:48:15;;;;;;;21.30;5.55;;;;;;;16.03;77.97;101726.31;5033917;28;20065;-75
2022/08/27 00:50:47;;;;;;;24.45;4.50;;;;;;;16.01;77.98;101725.69;5033797;28;20453;-74
2022/08/27 00:53:15;;;;;;;17.80;4.10;;;;;;;15.98;77.80;101721.50;5034353;28;20112;-75
2022/08/27 00:56:09;;;;;;;14.25;4.00;;;;;;;15.97;77.89;101725.22;5057717;28;20017;-76
2022/08/27 00:58:38;;;;;;;18.52;4.70;;;;;;;15.94;78.34;101731.06;5051335;28;20055;-75
2022/08/27 01:01:06;;;;;;;12.40;4.13;;;;;;;15.92;78.41;101730.41;5051118;28;20438;-75
2022/08/27 01:03:33;;;;;;;15.55;4.65;;;;;;;15.91;78.51;101727.91;5050774;28;20037;-74
2022/08/27 01:06:00;;;;;;;18.27;4.50;;;;;;;15.90;78.89;101724.31;5051205;28;20027;-73
2022/08/27 01:08:29;;;;;;;18.17;4.60;;;;;;;15.88;78.74;101731.84;5050881;28;20025;-76
2022/08/27 01:10:57;;;;;;;13.63;4.35;;;;;;;15.87;78.76;101741.00;5050869;28;20052;-76
2022/08/27 01:13:23;;;;;;;;;;;;;;;15.84;78.85;101727.84;5051766;28;20060;-74
2022/08/27 01:15:48;;;;;;;16.98;4.60;;;;;;;15.82;78.87;101738.03;5051011;28;19924;-75
2022/08/27 01:18:14;;;;;;;17.70;4.75;;;;;;;15.78;78.86;101728.63;5051148;28;20024;-74
2022/08/27 01:21:02;;;;;;;21.95;5.20;;;;;;;15.75;79.08;101731.72;5051027;28;20025;-75
2022/08/27 01:23:39;;;;;;;21.40;4.80;;;;;;;15.73;79.41;101733.78;5050967;28;20021;-75
2022/08/27 01:26:06;;;;;;;16.45;5.18;;;;;;;15.70;79.20;101729.59;5051120;28;20029;-75
2022/08/27 01:28:33;;;;;;;12.47;4.27;;;;;;;15.68;79.36;101728.06;5032915;28;20427;-75
2022/08/27 01:30:58;;;;;;;28.40;4.85;;;;;;;15.67;79.58;101726.41;5051034;28;20025;-75
2022/08/27 01:33:24;;;;;;;16.33;4.95;;;;;;;15.65;79.62;101725.75;5050880;28;20025;-75
2022/08/27 01:35:51;;;;;;;15.55;4.63;;;;;;;15.61;79.56;101721.72;5050356;28;20025;-75
2022/08/27 01:38:18;;;;;;;27.00;5.18;;;;;;;15.59;79.74;101725.50;5051028;28;20033;-75
2022/08/27 01:40:44;;;;;;;15.40;4.73;;;;;;;15.61;79.92;101724.44;5033079;28;20432;-75
2022/08/27 01:43:09;;;;;;;16.55;4.50;;;;;;;15.61;79.74;101724.44;5051179;28;20025;-75
2022/08/27 01:45:44;;;;;;;16.70;4.32;;;;;;;15.63;79.82;101722.38;5051028;28;20029;-75
2022/08/27 01:48:10;;;;;;;12.38;4.18;;;;;;;15.66;80.05;101727.41;5013250;28;20040;-75
2022/08/27 01:50:38;;;;;;;17.60;3.92;;;;;;;15.69;79.93;101727.06;5030757;28;20109;-75
2022/08/27 01:53:07;;;;;;;12.60;3.33;;;;;;;15.74;79.89;101719.19;5031253;28;20388;-75
2022/08/27 01:55:33;;;;;;;14.77;3.90;;;;;;;15.77;79.80;101722.38;5031793;28;20029;-75
2022/08/27 01:57:58;;;;;;;19.00;3.55;;;;;;;15.86;79.84;101725.78;5046963;28;20120;-75
2022/08/27 02:00:31;;;;;;;15.07;4.18;;;;;;;15.86;79.47;101711.38;5054636;28;20373;-75
2022/08/27 02:02:57;;;;;;;18.80;4.38;;;;;;;15.86;79.35;101723.06;5037886;28;20029;-75
2022/08/27 02:05:23;;;;;;;18.88;3.35;;;;;;;15.85;78.99;101715.97;5056071;28;20488;-76
2022/08/27 02:07:49;;;;;;;15.27;3.20;;;;;;;15.79;78.84;101719.44;5036625;28;20388;-75
2022/08/27 02:10:20;;;;;;;13.65;2.90;;;;;;;15.73;79.07;101721.06;5069769;28;20052;-75
2022/08/27 02:12:46;;;;;;;14.93;3.08;;;;;;;15.69;79.47;101710.78;5055025;28;20029;-75
2022/08/27 02:15:11;;;;;;;7.68;2.92;;;;;;;15.63;79.87;101716.97;5036582;28;20025;-74
2022/08/27 02:17:37;;;;;;;8.23;3.10;;;;;;;15.59;79.77;101706.50;5067474;28;20027;-74
2022/08/27 02:20:04;;;;;;;15.57;4.20;;;;;;;15.56;79.87;101711.44;5054641;28;20048;-74
2022/08/27 02:22:30;;;;;;;11.57;3.67;;;;;;;15.53;80.23;101710.00;5054318;28;20051;-75
2022/08/27 02:24:56;;;;;;;15.45;3.45;;;;;;;15.52;80.28;101715.59;5053890;28;20532;-75
2022/08/27 02:27:21;;;;;;;16.75;3.60;;;;;;;15.52;80.13;101715.59;5036075;28;20107;-75
2022/08/27 02:29:46;;;;;;;19.30;4.15;;;;;;;15.51;80.59;101714.78;5053776;28;20094;-75
2022/08/27 02:32:13;;;;;;;12.82;3.70;;;;;;;15.52;80.46;101710.19;5055187;28;20431;-75
2022/08/27 02:34:38;;;;;;;14.85;3.72;;;;;;;15.52;80.66;101708.28;5054584;28;20052;-75
2022/08/27 02:37:04;;;;;;;19.92;3.55;;;;;;;15.54;80.67;101699.97;5053773;28;20116;-75
2022/08/27 02:39:29;;;;;;;14.15;3.13;;;;;;;15.56;80.58;101704.19;5053757;28;20032;-75
2022/08/27 02:41:54;;;;;;;17.05;3.60;;;;;;;15.58;80.84;101704.81;5053676;28;20025;-75
2022/08/27 02:44:20;;;;;;;12.93;3.53;;;;;;;15.61;80.91;101702.75;5035434;28;20031;-75
2022/08/27 02:46:45;;;;;;;10.27;3.08;;;;;;;15.59;80.81;101706.50;5053640;28;20128;-75
2022/08/27 02:49:10;;;;;;;14.70;3.65;;;;;;;15.57;80.95;101703.13;5053596;28;20079;-75
2022/08/27 02:51:36;;;;;;;7.70;3.05;;;;;;;15.56;80.91;101697.88;5053240;28;20020;-75
2022/08/27 02:54:02;;;;;;;15.90;3.53;;;;;;;15.54;80.80;101692.69;5035714;28;20168;-75
2022/08/27 02:56:27;;;;;;;13.98;3.58;;;;;;;15.55;81.16;101693.50;5053578;28;20021;-75
2022/08/27 02:58:53;;;;;;;7.75;2.85;;;;;;;15.56;81.06;101687.03;5053259;28;20036;-75
2022/08/27 03:01:19;;;;;;;13.80;3.30;;;;;;;15.55;80.96;101690.78;5053368;28;20083;-75
2022/08/27 03:03:44;;;;;;;15.50;3.17;;;;;;;15.51;80.94;101693.06;5053514;28;20094;-75
2022/08/27 03:06:10;;;;;;;16.02;3.17;;;;;;;15.41;80.96;101676.28;5053169;28;20021;-75
2022/08/27 03:08:35;;;;;;;16.23;3.60;;;;;;;15.43;81.33;101685.06;5052975;28;20033;-76
2022/08/27 03:11:01;;;;;;;12.20;3.28;;;;;;;15.41;81.31;101687.13;5053136;28;20417;-75
2022/08/27 03:13:26;;;;;;;14.77;4.07;;;;;;;15.38;81.48;101682.09;5053205;28;20033;-75
2022/08/27 03:15:52;;;;;;;23.52;3.60;;;;;;;15.34;81.47;101681.63;5053115;28;20025;-75
2022/08/27 03:18:18;;;;;;;13.27;3.13;;;;;;;15.31;81.56;101686.59;5053186;28;20074;-75
2022/08/27 03:20:53;;;;;;;11.52;3.03;;;;;;;15.27;81.72;101688.00;5052769;28;20163;-75
2022/08/27 03:23:21;;;;;;;14.18;2.78;;;;;;;15.23;81.70;101679.41;5053278;28;20033;-75
2022/08/27 03:25:51;;;;;;;17.50;3.30;;;;;;;15.21;81.94;101686.91;5052926;28;20017;-76
2022/08/27 03:28:18;;;;;;;11.07;3.20;;;;;;;15.20;82.07;101684.41;5035147;28;20473;-75
2022/08/27 03:30:47;;;;;;;16.27;3.65;;;;;;;15.20;82.11;101681.69;5052997;28;20025;-75
2022/08/27 03:33:13;;;;;;;16.00;3.13;;;;;;;15.20;82.39;101685.22;5059328;28;20055;-75
2022/08/27 03:35:38;;;;;;;15.05;3.17;;;;;;;15.19;82.06;101678.09;5052651;28;20021;-75
2022/08/27 03:38:03;;;;;;;8.48;2.63;;;;;;;15.18;82.33;101681.88;5052986;28;20025;-75
2022/08/27 03:40:29;;;;;;;14.07;3.13;;;;;;;15.19;82.52;101683.53;5053896;28;20146;-75
2022/08/27 03:42:54;;;;;;;16.58;3.13;;;;;;;15.19;82.32;101682.69;5052610;28;20151;-75
2022/08/27 03:45:19;;;;;;;9.40;2.50;;;;;;;15.15;82.24;101683.09;5052669;28;20049;-76
2022/08/27 03:47:45;;;;;;;13.50;2.75;;;;;;;15.11;82.36;101687.22;5052413;28;20024;-76
2022/08/27 03:50:10;;;;;;;14.35;4.07;;;;;;;15.08;82.52;101681.31;5052386;28;20029;-75
2022/08/27 03:52:36;;;;;;;15.40;3.17;;;;;;;15.06;82.34;101677.97;5052361;28;20044;-75
2022/08/27 03:55:03;;;;;;;12.80;2.88;;;;;;;15.04;82.63;101680.03;5052313;28;20131;-74
2022/08/27 03:57:28;;;;;;;8.63;2.93;;;;;;;15.03;82.74;101679.19;5052151;28;20035;-74
2022/08/27 03:59:55;;;;;;;7.88;2.80;;;;;;;15.04;83.11;101677.34;5052139;28;20029;-75
2022/08/27 04:02:21;;;;;;;7.25;2.80;;;;;;;15.06;82.83;101684.25;5033946;28;20094;-75
2022/08/27 04:04:46;;;;;;;13.07;2.70;;;;;;;15.10;82.60;101687.41;5052008;28;20484;-75
2022/08/27 04:07:11;;;;;;;15.55;3.00;;;;;;;15.08;82.54;101684.03;5051966;28;20407;-75
2022/08/27 04:09:37;;;;;;;16.27;3.45;;;;;;;15.10;82.97;101680.09;5051795;28;20397;-75
2022/08/27 04:12:02;;;;;;;12.88;2.88;;;;;;;15.13;83.40;101682.44;5051764;28;20033;-74
2022/08/27 04:14:27;;;;;;;14.98;2.95;;;;;;;15.14;83.43;101684.13;5051946;28;20074;-75
2022/08/27 04:16:56;;;;;;;8.77;3.05;;;;;;;15.21;83.35;101676.06;5051734;28;20464;-74
2022/08/27 04:19:23;;;;;;;15.27;3.13;;;;;;;15.24;83.29;101674.81;5051267;28;20025;-74
2022/08/27 04:21:49;;;;;;;10.63;3.95;;;;;;;15.28;83.33;101681.56;5051648;28;20052;-74
2022/08/27 04:24:14;;;;;;;12.68;2.97;;;;;;;15.32;83.10;101675.56;5051647;28;20456;-74
2022/08/27 04:26:41;;;;;;;12.00;3.85;;;;;;;15.37;83.00;101681.22;5051840;28;20029;-74
2022/08/27 04:29:06;;;;;;;15.65;3.17;;;;;;;15.40;83.10;101682.72;5051766;28;20536;-74
2022/08/27 04:31:34;;;;;;;8.10;3.17;;;;;;;15.42;83.23;101677.09;5051739;28;20029;-74
2022/08/27 04:33:59;;;;;;;10.75;3.88;;;;;;;15.46;83.33;101687.38;5051710;28;20028;-74
2022/08/27 04:36:25;;;;;;;15.10;3.67;;;;;;;15.53;83.65;101690.13;5051690;28;20020;-75
2022/08/27 04:38:50;;;;;;;15.02;3.53;;;;;;;15.58;83.29;101683.09;5050667;28;20060;-73
2022/08/27 04:41:18;;;;;;;11.35;3.33;;;;;;;15.66;83.33;101684.00;5049938;28;20077;-75
2022/08/27 04:43:54;;;;;;;15.20;3.30;;;;;;;15.69;83.10;101694.50;5032316;28;20031;-74
2022/08/27 04:46:21;;;;;;;9.18;3.60;;;;;;;15.69;83.01;101695.34;5050207;28;20033;-74
2022/08/27 04:48:46;;;;;;;15.23;3.95;;;;;;;15.70;82.88;101701.63;5050582;28;20024;-74
2022/08/27 04:51:11;;;;;;;15.43;3.17;;;;;;;15.66;82.72;101708.44;5051098;28;20075;-74
2022/08/27 04:53:37;;;;;;;14.88;3.90;;;;;;;15.62;82.99;101699.00;5051088;28;20104;-74
2022/08/27 04:56:03;;;;;;;15.25;3.50;;;;;;;15.57;83.00;101697.72;5053223;28;20037;-73
2022/08/27 04:58:28;;;;;;;10.35;3.25;;;;;;;15.54;83.33;101698.09;5050642;28;20512;-74
2022/08/27 05:00:58;;;;;;;11.23;3.40;;;;;;;15.54;83.55;101697.28;5051052;28;20025;-74
2022/08/27 05:03:23;;;;;;;12.15;3.67;;;;;;;15.53;83.44;101691.00;5053458;28;20467;-74
2022/08/27 05:05:50;;;;;;;13.65;3.95;;;;;;;15.54;83.54;101698.09;5050089;28;20100;-74
2022/08/27 05:08:16;;;;;;;23.80;4.80;;;;;;;15.56;83.41;101706.91;5050279;28;20031;-76
2022/08/27 05:10:48;;;;;;;14.63;3.85;;;;;;;15.55;83.32;101702.47;5050931;28;20513;-73
2022/08/27 05:13:17;;;;;;;15.95;4.07;;;;;;;15.57;83.36;101705.00;5045607;28;20024;-74
2022/08/27 05:15:42;;;;;;;16.77;4.15;;;;;;;15.59;83.75;101706.50;5031718;28;20036;-74
2022/08/27 05:18:08;;;;;;;14.77;4.45;;;;;;;15.65;83.82;101704.03;5049728;28;20053;-74
2022/08/27 05:20:40;;;;;;;10.15;4.15;;;;;;;15.70;83.84;101712.47;5049743;28;20139;-74
2022/08/27 05:23:06;;;;;;;16.80;4.38;;;;;;;15.76;83.47;101714.41;5040813;28;20033;-74
2022/08/27 05:25:37;;;;;;;14.30;3.60;;;;;;;15.82;83.39;101716.31;5030144;28;20028;-73
2022/08/27 05:28:02;;;;;;;13.98;3.28;;;;;;;15.89;83.24;101717.22;5034897;28;20025;-73
2022/08/27 05:30:28;;;;;;;11.20;3.63;;;;;;;15.99;83.00;101723.16;5050713;28;20090;-73
2022/08/27 05:32:53;;;;;;;12.77;4.10;;;;;;;16.04;82.36;101724.47;5053291;28;20021;-73
2022/08/27 05:35:18;;;;;;;22.48;4.78;;;;;;;16.02;82.57;101717.34;5035618;28;20383;-76
2022/08/27 05:37:44;;;;;;;18.67;4.38;;;;;;;16.07;82.59;101718.63;5054306;28;20721;-75
2022/08/27 05:40:09;;;;;;;13.93;4.22;;;;;;;16.09;82.56;101713.81;5054070;28;20467;-75
2022/08/27 05:42:35;;;;;;;13.85;3.85;;;;;;;16.09;82.62;101721.97;5054077;28;20021;-75
2022/08/27 05:45:00;;;;;;;10.57;3.85;;;;;;;16.13;82.79;101724.09;5053715;28;20034;-75
2022/08/27 05:47:26;;;;;;;18.55;4.00;;;;;;;16.20;82.93;101721.47;5053866;28;20044;-75
2022/08/27 05:49:52;;;;;;;16.75;3.83;;;;;;;16.22;83.14;101722.09;5054277;28;20529;-75
2022/08/27 05:52:18;;;;;;;13.05;4.30;;;;;;;16.22;83.73;101725.66;5054916;28;20036;-76
2022/08/27 05:54:43;;;;;;;26.42;5.07;;;;;;;16.26;84.57;101720.66;5036671;28;20384;-75
2022/08/27 05:57:08;;;;;;;9.75;4.00;;;;;;;16.30;85.53;101719.22;5054624;28;20017;-76
2022/08/27 06:02:19;;;;;;;14.80;4.28;;;;;;;16.31;86.05;101718.19;5055665;28;20043;-75
2022/08/27 06:04:44;;;;;;;22.38;4.82;;;;;;;16.33;85.74;101718.84;5056198;28;20388;-76
2022/08/27 06:07:10;;;;;;;13.18;3.80;;;;;;;16.36;85.51;101715.72;5054971;28;20037;-76
2022/08/27 06:09:36;;;;;;;16.50;4.03;;;;;;;16.36;84.79;101721.16;5055772;28;20106;-76
2022/08/27 06:12:02;;;;;;;11.25;3.38;;;;;;;16.39;84.38;101714.47;5037956;28;20029;-75
2022/08/27 06:14:28;;;;;;;19.77;3.78;;;;;;;16.46;84.50;101712.66;5054864;28;20025;-76
2022/08/27 06:16:53;;;;;;;13.10;3.33;;;;;;;16.50;84.30;101713.91;5054406;28;20021;-76
2022/08/27 06:19:19;;;;;;;11.98;3.55;;;;;;;16.54;84.21;101712.47;5039203;28;20033;-75
2022/08/27 06:21:44;;;;;;;15.00;3.58;;;;;;;16.58;83.97;101721.91;5058050;28;20052;-75
2022/08/27 06:24:13;;;;;;;9.85;2.95;;;;;;;16.63;83.02;101724.03;5054493;28;20032;-78
2022/08/27 06:26:41;;;;;;;14.05;3.35;;;;;;;16.68;82.57;101726.97;5056007;28;20037;-76
2022/08/27 06:29:07;;;;;;;18.10;3.38;;;;;;;16.74;82.55;101719.91;5036374;28;20058;-76
2022/08/27 06:31:34;;;;;;;15.15;3.50;;;;;;;16.82;81.88;101717.88;5054246;28;20040;-74
2022/08/27 06:34:01;;;;;;;20.83;3.60;;;;;;;17.08;81.14;101724.47;5054663;28;20025;-75
2022/08/27 06:36:28;;;;;;;16.27;4.20;;;;;;;17.55;79.57;101712.66;5041501;28;20713;-75
2022/08/27 06:38:54;;;;;;;11.55;3.65;;;;;;;17.93;76.79;101714.84;5054559;28;20059;-75
2022/08/27 06:41:22;;;;;;;20.10;3.60;;;;;;;18.19;74.72;101718.56;5052226;28;20057;-74
2022/08/27 06:43:48;;;;;;;22.77;4.30;;;;;;;18.43;73.75;101720.66;5052944;28;20068;-76
2022/08/27 06:46:17;;;;;;;17.13;4.15;;;;;;;18.62;72.31;101724.38;5052810;28;20040;-75
2022/08/27 06:48:46;;;;;;;16.40;4.50;;;;;;;18.76;70.89;101716.19;5035536;28;20033;-75
2022/08/27 06:51:18;;;;;;;18.25;4.30;;;;;;;19.00;71.40;101714.63;5053370;28;20484;-75
2022/08/27 06:53:45;;;;;;;19.45;4.07;;;;;;;19.29;69.86;101724.13;5052835;28;20056;-76
2022/08/27 06:56:12;;;;;;;15.20;4.05;;;;;;;19.61;67.73;101716.78;5052232;28;20116;-75
2022/08/27 06:58:37;;;;;;;13.27;4.20;;;;;;;20.34;67.71;101718.13;5052635;28;20416;-75
2022/08/27 07:01:11;;;;;;;12.52;4.03;;;;;;;21.80;61.42;101713.53;5051891;28;20103;-76
2022/08/27 07:03:36;;;;;;;13.75;3.88;;;;;;;23.18;56.69;101718.56;5053606;28;20044;-76
2022/08/27 07:06:04;;;;;;;12.88;4.05;;;;;;;23.53;53.47;101721.13;5052482;28;20032;-75
2022/08/27 07:08:29;;;;;;;15.48;3.90;;;;;;;23.10;53.97;101727.19;5035326;28;20052;-76
2022/08/27 07:10:56;;;;;;;13.45;3.83;;;;;;;22.81;54.25;101729.88;5052853;28;20037;-76
2022/08/27 07:13:21;;;;;;;14.37;3.97;;;;;;;22.86;53.55;101729.97;5037488;28;20033;-75
2022/08/27 07:15:47;;;;;;;14.80;3.80;;;;;;;23.11;52.87;101732.44;5054151;28;20108;-74
2022/08/27 07:18:12;;;;;;;16.90;3.80;;;;;;;23.56;52.46;101730.81;5053429;28;20064;-75
2022/08/27 07:20:40;;;;;;;16.08;4.22;;;;;;;23.97;49.76;101732.38;5053445;28;20473;-75
2022/08/27 07:23:05;;;;;;;;;;;;;;;23.66;50.08;101731.00;5035896;28;20139;-75
2022/08/27 07:25:31;;;;;;;15.23;3.77;;;;;;;23.13;51.66;101740.44;5053067;28;20328;-76
2022/08/27 07:27:57;;;;;;;13.85;3.40;;;;;;;22.69;51.59;101732.63;5034846;28;20317;-75
2022/08/27 07:30:22;;;;;;;15.70;3.58;;;;;;;22.22;52.92;101737.31;5044830;28;20024;-75
2022/08/27 07:32:48;;;;;;;13.73;4.47;;;;;;;21.60;55.16;101734.94;5053062;28;20480;-75
2022/08/27 07:35:13;;;;;;;15.73;4.07;;;;;;;21.27;56.69;101737.03;5052405;28;20557;-75
2022/08/27 07:37:40;;;;;;;12.57;3.60;;;;;;;20.93;57.01;101740.41;5034744;28;20555;-74
2022/08/27 07:40:11;;;;;;;13.60;3.40;;;;;;;20.78;57.32;101736.19;5034301;28;20057;-74
2022/08/27 07:45:21;;;;;;;17.75;3.70;;;;;;;20.33;58.43;101741.06;5052916;28;20086;-76
2022/08/27 07:47:46;;;;;;;12.70;3.58;;;;;;;20.22;59.17;101744.50;5052596;28;20096;-75
2022/08/27 07:50:12;;;;;;;13.77;3.20;;;;;;;20.25;59.06;101739.44;5052828;28;20483;-74
2022/08/27 07:52:38;;;;;;;12.77;3.30;;;;;;;20.23;59.04;101741.56;5033800;28;20052;-74
2022/08/27 07:55:04;;;;;;;14.05;3.47;;;;;;;20.32;58.74;101733.91;5052061;28;20465;-74
2022/08/27 07:57:30;;;;;;;16.13;3.67;;;;;;;20.50;58.55;101747.59;5034222;28;20462;-74
2022/08/27 07:59:55;;;;;;;12.13;3.55;;;;;;;20.82;58.60;101734.66;5052000;28;20075;-74
2022/08/27 08:02:21;;;;;;;14.65;3.47;;;;;;;21.03;57.10;101740.72;5052134;28;20021;-74
2022/08/27 08:04:46;;;;;;;11.90;3.40;;;;;;;21.11;56.36;101747.78;5052016;28;20471;-75
2022/08/27 08:07:12;;;;;;;16.10;4.20;;;;;;;21.12;56.11;101744.00;5052214;28;20400;-74
2022/08/27 08:09:37;;;;;;;14.25;3.03;;;;;;;21.29;55.35;101758.69;5052018;28;20474;-74
2022/08/27 08:12:04;;;;;;;9.73;3.05;;;;;;;21.48;54.85;101760.38;5033784;28;20049;-74
2022/08/27 08:14:31;;;;;;;10.90;3.20;;;;;;;21.64;54.81;101758.88;5052815;28;20530;-74
2022/08/27 08:17:00;;;;;;;9.57;3.50;;;;;;;21.87;54.96;101763.56;5052632;28;20025;-74
2022/08/27 08:19:26;;;;;;;13.32;3.42;;;;;;;22.23;54.07;101766.41;5052283;28;20021;-76
2022/08/27 08:21:52;;;;;;;12.27;3.28;;;;;;;22.64;52.52;101761.88;5051964;28;20039;-76
2022/08/27 08:24:18;;;;;;;16.63;3.47;;;;;;;22.90;51.01;101766.84;5052429;28;20025;-74
2022/08/27 08:26:43;;;;;;;14.30;3.30;;;;;;;23.07;51.46;101771.63;5051751;28;20045;-74
2022/08/27 08:29:09;;;;;;;9.77;2.70;;;;;;;23.96;49.47;101766.47;5051654;28;20112;-75
2022/08/27 08:31:34;;;;;;;9.05;2.92;;;;;;;24.54;48.72;101769.88;5051704;28;20029;-75
2022/08/27 08:34:00;;;;;;;10.60;3.03;;;;;;;24.94;46.30;101768.75;5054791;28;20027;-74
2022/08/27 08:36:25;;;;;;;16.38;3.50;;;;;;;25.11;44.93;101768.69;5051795;28;20180;-74
2022/08/27 08:38:50;;;;;;;13.07;2.90;;;;;;;24.86;45.52;101771.97;5051406;28;20470;-75
2022/08/27 08:41:28;;;;;;;24.52;3.92;;;;;;;24.55;46.34;101770.72;5051814;28;20021;-74
2022/08/27 08:43:53;;;;;;;;;;;;;;;24.38;46.63;101777.03;5052063;28;20032;-75
2022/08/27 08:46:26;;;;;;;10.00;2.88;;;;;;;24.21;44.80;101765.22;5051425;28;19913;-75
2022/08/27 08:48:54;;;;;;;11.13;3.33;;;;;;;23.97;45.65;101767.28;5051070;28;20103;-75
2022/08/27 08:51:32;;;;;;;13.60;3.20;;;;;;;23.97;44.29;101770.03;5033599;28;20421;-76
2022/08/27 08:54:01;;;;;;;16.80;3.10;;;;;;;25.03;42.21;101769.97;5033436;28;20029;-76
2022/08/27 08:56:34;;;;;;;7.70;2.40;;;;;;;26.37;39.81;101775.75;5033206;28;20024;-75
2022/08/27 08:59:29;;;;;;;18.20;3.10;;;;;;;26.57;39.22;101769.56;5051029;28;20380;-75
2022/08/27 09:01:56;;;;;;;9.48;2.90;;;;;;;26.09;40.30;101771.38;5033241;28;20079;-76
2022/08/27 09:04:23;;;;;;;17.53;2.90;;;;;;;25.38;42.12;101779.78;5052235;28;20087;-75
2022/08/27 09:07:03;;;;;;;11.52;3.13;;;;;;;24.57;42.78;101779.56;5033583;28;20045;-75
2022/08/27 09:10:01;;;;;;;9.55;2.75;;;;;;;23.85;44.69;101784.66;5051126;28;20052;-75
2022/08/27 09:12:29;;;;;;;16.60;3.05;;;;;;;23.36;45.93;101787.03;5044480;28;20133;-76
2022/08/27 09:15:03;;;;;;;15.60;2.70;;;;;;;23.05;47.10;101779.25;5051144;28;20035;-75
2022/08/27 09:17:28;;;;;;;10.80;2.78;;;;;;;22.76;48.05;101790.13;5032845;28;20029;-75
2022/08/27 09:19:54;;;;;;;11.68;2.83;;;;;;;22.51;49.22;101780.25;5050836;28;20017;-75
2022/08/27 09:22:38;;;;;;;17.15;3.25;;;;;;;22.43;48.26;101786.06;5048404;28;20492;-75
2022/08/27 09:25:10;;;;;;;11.68;2.78;;;;;;;22.16;49.15;101780.19;5042039;28;20046;-75
2022/08/27 09:27:40;;;;;;;16.95;2.88;;;;;;;22.18;48.93;101793.69;5049794;28;20040;-76
2022/08/27 09:30:11;;;;;;;16.10;3.17;;;;;;;22.14;49.66;101791.41;5050767;28;20033;-75
2022/08/27 09:32:38;;;;;;;15.85;2.90;;;;;;;22.05;50.15;101797.47;5050660;28;20191;-77
2022/08/27 09:35:06;;;;;;;13.75;3.05;;;;;;;22.07;50.73;101790.69;5050805;28;20025;-75
2022/08/27 09:37:39;;;;;;;16.20;3.35;;;;;;;22.04;50.72;101799.38;5050118;28;20021;-75
2022/08/27 09:40:11;;;;;;;17.45;3.17;;;;;;;21.82;50.17;101799.06;5031783;28;20111;-75
2022/08/27 09:42:45;;;;;;;12.13;3.00;;;;;;;21.67;50.88;101791.28;5049594;28;20033;-75
2022/08/27 09:45:14;;;;;;;12.27;2.53;;;;;;;21.64;50.55;101788.16;5033495;28;20044;-76
2022/08/27 09:47:48;;;;;;;17.13;2.70;;;;;;;21.59;51.16;101797.09;5050839;28;20055;-75
2022/08/27 09:50:20;;;;;;;17.20;2.55;;;;;;;21.52;51.35;101782.66;5050824;28;20154;-75
2022/08/27 09:52:54;;;;;;;12.57;2.85;;;;;;;21.46;51.91;101786.34;5050337;28;20029;-75
2022/08/27 09:55:28;;;;;;;15.38;3.40;;;;;;;21.44;52.18;101785.72;5019777;28;20485;-74
2022/08/27 09:57:54;;;;;;;17.00;3.08;;;;;;;21.56;52.99;101783.84;5033094;28;20053;-74
2022/08/27 10:00:28;;;;;;;11.98;2.90;;;;;;;21.68;51.78;101782.00;5043346;28;20530;-75
2022/08/27 10:02:53;;;;;;;12.50;2.70;;;;;;;21.85;49.99;101782.19;5021148;28;20571;-76
2022/08/27 10:05:36;;;;;;;10.65;2.70;;;;;;;21.97;50.68;101784.94;5044725;28;20112;-75
2022/08/27 10:08:18;;;;;;;10.20;2.63;;;;;;;21.97;50.17;101787.69;5042779;28;20508;-75
2022/08/27 10:11:13;;;;;;;10.88;2.55;;;;;;;21.89;50.55;101788.00;5034958;28;20050;-75
2022/08/27 10:13:38;;;;;;;18.08;2.85;;;;;;;21.93;50.44;101783.72;5035089;28;20595;-75
2022/08/27 10:16:32;;;;;;;18.73;3.20;;;;;;;21.92;51.11;101793.03;5050769;28;20108;-75
2022/08/27 10:19:19;;;;;;;12.48;2.40;;;;;;;22.07;50.58;101785.19;5054201;28;20044;-75
2022/08/27 10:22:30;;;;;;;21.27;2.80;;;;;;;22.02;50.76;101790.53;5048521;28;20103;-76
2022/08/27 10:25:22;;;;;;;10.43;2.55;;;;;;;21.94;50.68;101785.41;5033212;28;20032;-75
2022/08/27 10:28:25;;;;;;;14.23;2.92;;;;;;;21.98;51.21;101783.84;5038659;28;20450;-75
2022/08/27 10:31:13;;;;;;;10.38;2.70;;;;;;;22.04;50.50;101785.66;5036035;28;20108;-75
2022/08/27 10:33:48;;;;;;;10.52;2.92;;;;;;;22.09;49.79;101782.19;5054433;28;20083;-77
2022/08/27 10:36:29;;;;;;;13.32;3.25;;;;;;;22.14;50.07;101785.94;5054181;28;20142;-76
2022/08/27 10:39:03;;;;;;;9.77;2.70;;;;;;;22.27;50.51;101784.88;5054094;28;20119;-75
2022/08/27 10:41:41;;;;;;;14.13;2.38;;;;;;;22.46;50.85;101784.75;5035569;28;20104;-76
2022/08/27 10:44:13;;;;;;;26.05;3.17;;;;;;;22.34;50.48;101782.03;5053666;28;20562;-75
2022/08/27 10:46:56;;;;;;;20.48;3.03;;;;;;;22.66;50.41;101785.25;5054481;28;20119;-76
2022/08/27 10:49:51;;;;;;;10.95;2.90;;;;;;;23.04;49.65;101777.56;5054997;28;20021;-76
2022/08/27 10:52:26;;;;;;;13.85;2.72;;;;;;;23.33;48.89;101782.03;5033973;28;20504;-75
2022/08/27 10:55:11;;;;;;;16.17;2.70;;;;;;;23.70;45.91;101781.66;5053472;28;20457;-75
2022/08/27 10:57:45;;;;;;;12.18;2.38;;;;;;;23.71;45.90;101775.06;5053229;28;20056;-76
2022/08/27 11:00:22;;;;;;;22.23;2.85;;;;;;;23.83;44.78;101784.09;5053276;28;20157;-76
2022/08/27 11:02:47;;;;;;;8.73;2.30;;;;;;;23.97;45.41;101784.63;5035357;28;20048;-77
2022/08/27 11:05:19;;;;;;;13.80;2.75;;;;;;;24.24;43.92;101782.03;5053560;28;20425;-74
2022/08/27 11:07:55;;;;;;;12.20;2.47;;;;;;;24.10;44.56;101778.78;5034768;28;20074;-75
2022/08/27 11:10:28;;;;;;;19.35;2.95;;;;;;;24.34;43.79;101781.38;5052981;28;20408;-77
2022/08/27 11:12:57;;;;;;;14.00;2.92;;;;;;;24.42;42.76;101772.69;5053269;28;20356;-76
2022/08/27 11:15:29;;;;;;;13.20;2.80;;;;;;;24.47;43.15;101774.72;5053239;28;20017;-75
2022/08/27 11:18:03;;;;;;;13.52;2.58;;;;;;;24.32;43.52;101775.28;5035112;28;20028;-77
2022/08/27 11:20:35;;;;;;;12.32;2.65;;;;;;;24.43;43.65;101773.50;5034991;28;20078;-77
2022/08/27 11:23:18;;;;;;;10.48;2.53;;;;;;;24.31;43.95;101777.19;5034852;28;20061;-77
2022/08/27 11:25:55;;;;;;;16.15;2.97;;;;;;;24.38;44.42;101776.19;5034911;28;20107;-76
2022/08/27 11:28:26;;;;;;;15.90;3.05;;;;;;;24.30;44.14;101772.78;5053754;28;20073;-77
2022/08/27 11:30:59;;;;;;;13.90;2.88;;;;;;;24.05;45.08;101767.69;5053243;28;20067;-77
2022/08/27 11:33:43;;;;;;;17.88;2.28;;;;;;;23.75;45.96;101767.16;5034975;28;20050;-76